Terminal Aerodrome Forecast
Issued by NWS Riverton, WY

Home | Current Version | Previous Version | Text Only | Print | Product List | Glossary On
Versions: 1 2 3 4 5 6 7 8 9 10 11 12
000
FTUS45 KRIW 262327
TAFRIW
TAF
KRIW 262327Z 2700/2724 02010KT P6SM VCSH SCT120
     FM270300 03011KT P6SM SCT120
     FM270900 34006KT P6SM SKC
     FM272200 03009KT P6SM FEW120=

USA.gov is the U.S. government's official web portal to all federal, state and local government web resources and services.